sensor_id;sensor_type;location;lat;lon;timestamp;pressure;altitude;pressure_sealevel;temperature;humidity
54329;BME280;40710;51.120;13.136;2022-12-13T00:02:16;99079.06;;;2.92;52.56
54329;BME280;40710;51.120;13.136;2022-12-13T00:04:41;99079.56;;;2.72;52.83
54329;BME280;40710;51.120;13.136;2022-12-13T00:07:06;99076.94;;;3.06;52.05
54329;BME280;40710;51.120;13.136;2022-12-13T00:09:30;99077.38;;;2.20;53.60
54329;BME280;40710;51.120;13.136;2022-12-13T00:11:55;99080.97;;;2.51;53.53
54329;BME280;40710;51.120;13.136;2022-12-13T00:14:19;99072.09;;;2.25;54.21
54329;BME280;40710;51.120;13.136;2022-12-13T00:16:45;99076.53;;;2.20;54.34
54329;BME280;40710;51.120;13.136;2022-12-13T00:19:10;99078.97;;;2.26;54.23
54329;BME280;40710;51.120;13.136;2022-12-13T00:21:35;99086.69;;;1.53;54.63
54329;BME280;40710;51.120;13.136;2022-12-13T00:24:00;99077.81;;;2.02;53.80
54329;BME280;40710;51.120;13.136;2022-12-13T00:26:27;99082.34;;;1.92;54.25
54329;BME280;40710;51.120;13.136;2022-12-13T00:28:53;99078.22;;;2.21;53.45
54329;BME280;40710;51.120;13.136;2022-12-13T00:31:19;99084.19;;;1.87;54.70
54329;BME280;40710;51.120;13.136;2022-12-13T00:33:44;99080.38;;;2.03;53.54
54329;BME280;40710;51.120;13.136;2022-12-13T00:36:09;99078.69;;;1.63;54.07
54329;BME280;40710;51.120;13.136;2022-12-13T00:38:34;99074.47;;;1.97;53.42
54329;BME280;40710;51.120;13.136;2022-12-13T00:41:17;99079.81;;;2.28;53.01
54329;BME280;40710;51.120;13.136;2022-12-13T00:43:42;99072.34;;;2.14;52.56
54329;BME280;40710;51.120;13.136;2022-12-13T00:46:14;99073.88;;;1.45;53.40
54329;BME280;40710;51.120;13.136;2022-12-13T00:48:40;99073.41;;;1.24;54.52
54329;BME280;40710;51.120;13.136;2022-12-13T00:51:06;99078.44;;;1.34;54.45
54329;BME280;40710;51.120;13.136;2022-12-13T00:53:31;99076.88;;;2.04;52.94
54329;BME280;40710;51.120;13.136;2022-12-13T00:55:56;99073.94;;;1.40;53.90
54329;BME280;40710;51.120;13.136;2022-12-13T00:58:20;99066.09;;;2.23;51.80
54329;BME280;40710;51.120;13.136;2022-12-13T01:00:45;99063.22;;;1.59;53.27
54329;BME280;40710;51.120;13.136;2022-12-13T01:03:09;99070.03;;;2.03;52.06
54329;BME280;40710;51.120;13.136;2022-12-13T01:05:43;99077.94;;;1.15;53.63
54329;BME280;40710;51.120;13.136;2022-12-13T01:08:08;99066.94;;;1.45;53.49
54329;BME280;40710;51.120;13.136;2022-12-13T01:10:32;99071.75;;;1.64;52.85
54329;BME280;40710;51.120;13.136;2022-12-13T01:12:57;99065.09;;;1.52;52.84
54329;BME280;40710;51.120;13.136;2022-12-13T01:15:21;99068.03;;;1.35;53.00
54329;BME280;40710;51.120;13.136;2022-12-13T01:17:46;99076.31;;;1.09;53.22
54329;BME280;40710;51.120;13.136;2022-12-13T01:20:12;99063.16;;;1.20;53.17
54329;BME280;40710;51.120;13.136;2022-12-13T01:22:37;99059.09;;;1.06;52.82
54329;BME280;40710;51.120;13.136;2022-12-13T01:25:01;99047.44;;;1.29;52.42
54329;BME280;40710;51.120;13.136;2022-12-13T01:27:26;99055.88;;;1.39;51.82
54329;BME280;40710;51.120;13.136;2022-12-13T01:29:50;99064.44;;;0.99;52.60
54329;BME280;40710;51.120;13.136;2022-12-13T01:32:15;99050.72;;;1.39;52.40
54329;BME280;40710;51.120;13.136;2022-12-13T01:34:40;99047.75;;;1.13;52.44
54329;BME280;40710;51.120;13.136;2022-12-13T01:37:04;99049.91;;;0.91;52.68
54329;BME280;40710;51.120;13.136;2022-12-13T01:39:29;99048.81;;;0.56;53.36
54329;BME280;40710;51.120;13.136;2022-12-13T01:41:55;99043.34;;;1.19;51.62
54329;BME280;40710;51.120;13.136;2022-12-13T01:47:23;99062.00;;;0.43;53.15
54329;BME280;40710;51.120;13.136;2022-12-13T01:49:52;99051.69;;;0.40;53.62
54329;BME280;40710;51.120;13.136;2022-12-13T01:52:19;99048.31;;;0.36;53.43
54329;BME280;40710;51.120;13.136;2022-12-13T01:54:48;99046.72;;;0.77;52.38
54329;BME280;40710;51.120;13.136;2022-12-13T01:57:17;99056.03;;;0.37;52.43
54329;BME280;40710;51.120;13.136;2022-12-13T01:59:44;99054.50;;;0.26;52.72
54329;BME280;40710;51.120;13.136;2022-12-13T02:02:13;99052.00;;;0.21;52.73
54329;BME280;40710;51.120;13.136;2022-12-13T02:05:06;99051.03;;;-0.29;53.55
54329;BME280;40710;51.120;13.136;2022-12-13T02:07:34;99052.13;;;0.13;53.15
54329;BME280;40710;51.120;13.136;2022-12-13T02:10:03;99054.59;;;-0.36;53.60
54329;BME280;40710;51.120;13.136;2022-12-13T02:12:31;99054.75;;;-0.47;53.64
54329;BME280;40710;51.120;13.136;2022-12-13T02:15:05;99042.03;;;-0.04;51.92
54329;BME280;40710;51.120;13.136;2022-12-13T02:28:15;99057.28;;;-1.17;53.54
54329;BME280;40710;51.120;13.136;2022-12-13T02:30:51;99045.03;;;-0.98;53.01
54329;BME280;40710;51.120;13.136;2022-12-13T02:33:42;99061.09;;;-1.58;54.00
54329;BME280;40710;51.120;13.136;2022-12-13T02:41:35;99057.72;;;-1.65;54.10
54329;BME280;40710;51.120;13.136;2022-12-13T02:44:06;99064.00;;;-1.98;54.66
54329;BME280;40710;51.120;13.136;2022-12-13T02:46:40;99070.75;;;-1.82;54.10
54329;BME280;40710;51.120;13.136;2022-12-13T02:49:08;99073.22;;;-1.69;53.92
54329;BME280;40710;51.120;13.136;2022-12-13T02:51:35;99073.25;;;-1.74;53.50
54329;BME280;40710;51.120;13.136;2022-12-13T02:54:02;99071.59;;;-1.80;54.08
54329;BME280;40710;51.120;13.136;2022-12-13T02:56:30;99067.19;;;-1.68;54.04
54329;BME280;40710;51.120;13.136;2022-12-13T02:58:57;99054.19;;;-1.55;52.75
54329;BME280;40710;51.120;13.136;2022-12-13T03:01:39;99042.81;;;-1.34;53.36
54329;BME280;40710;51.120;13.136;2022-12-13T03:04:24;99051.72;;;-1.65;53.65
54329;BME280;40710;51.120;13.136;2022-12-13T03:07:06;99043.28;;;-1.83;54.96
54329;BME280;40710;51.120;13.136;2022-12-13T03:12:17;99056.44;;;-2.23;55.76
54329;BME280;40710;51.120;13.136;2022-12-13T03:17:50;99044.13;;;-1.81;54.40
54329;BME280;40710;51.120;13.136;2022-12-13T03:20:23;99050.16;;;-1.80;54.65
54329;BME280;40710;51.120;13.136;2022-12-13T03:22:48;99048.22;;;-1.60;53.89
54329;BME280;40710;51.120;13.136;2022-12-13T03:25:14;99048.78;;;-2.29;54.39
54329;BME280;40710;51.120;13.136;2022-12-13T03:27:38;99044.19;;;-1.90;54.68
54329;BME280;40710;51.120;13.136;2022-12-13T03:30:03;99038.41;;;-2.17;54.34
54329;BME280;40710;51.120;13.136;2022-12-13T03:32:28;99029.53;;;-1.82;53.54
54329;BME280;40710;51.120;13.136;2022-12-13T03:34:52;99024.19;;;-1.62;53.07
54329;BME280;40710;51.120;13.136;2022-12-13T03:37:17;99026.75;;;-1.59;52.64
54329;BME280;40710;51.120;13.136;2022-12-13T03:39:42;99028.75;;;-1.92;53.34
54329;BME280;40710;51.120;13.136;2022-12-13T03:42:06;99029.84;;;-2.22;54.34
54329;BME280;40710;51.120;13.136;2022-12-13T03:44:31;99021.19;;;-2.10;53.27
54329;BME280;40710;51.120;13.136;2022-12-13T03:46:55;99027.06;;;-1.94;52.67
54329;BME280;40710;51.120;13.136;2022-12-13T03:49:20;99024.78;;;-2.34;53.58
54329;BME280;40710;51.120;13.136;2022-12-13T03:51:45;99027.28;;;-2.23;53.59
54329;BME280;40710;51.120;13.136;2022-12-13T03:54:09;99032.03;;;-3.12;55.87
54329;BME280;40710;51.120;13.136;2022-12-13T03:56:34;99035.34;;;-2.90;54.70
54329;BME280;40710;51.120;13.136;2022-12-13T03:58:58;99031.03;;;-2.77;53.94
54329;BME280;40710;51.120;13.136;2022-12-13T04:01:23;99036.25;;;-2.95;54.97
54329;BME280;40710;51.120;13.136;2022-12-13T04:03:47;99034.41;;;-2.67;53.63
54329;BME280;40710;51.120;13.136;2022-12-13T04:06:14;99033.66;;;-3.00;54.39
54329;BME280;40710;51.120;13.136;2022-12-13T04:08:39;99030.19;;;-2.87;54.23
54329;BME280;40710;51.120;13.136;2022-12-13T04:11:04;99039.66;;;-2.95;53.52
54329;BME280;40710;51.120;13.136;2022-12-13T04:13:47;99034.69;;;-3.53;54.96
54329;BME280;40710;51.120;13.136;2022-12-13T04:16:12;99037.97;;;-2.97;54.62
54329;BME280;40710;51.120;13.136;2022-12-13T04:18:36;99024.16;;;-2.78;53.55
54329;BME280;40710;51.120;13.136;2022-12-13T04:21:01;99023.13;;;-2.44;53.34
54329;BME280;40710;51.120;13.136;2022-12-13T04:23:25;99030.34;;;-3.24;55.46
54329;BME280;40710;51.120;13.136;2022-12-13T04:25:50;99024.09;;;-2.67;53.47
54329;BME280;40710;51.120;13.136;2022-12-13T04:28:15;99020.81;;;-2.91;54.22
54329;BME280;40710;51.120;13.136;2022-12-13T04:30:39;99017.28;;;-2.79;53.66
54329;BME280;40710;51.120;13.136;2022-12-13T04:33:04;99020.63;;;-2.61;55.81
54329;BME280;40710;51.120;13.136;2022-12-13T04:35:28;99019.03;;;-2.84;54.13
54329;BME280;40710;51.120;13.136;2022-12-13T04:37:54;99015.56;;;-2.72;54.21
54329;BME280;40710;51.120;13.136;2022-12-13T04:40:20;99025.16;;;-3.17;53.96
54329;BME280;40710;51.120;13.136;2022-12-13T04:42:44;99025.06;;;-2.83;52.94
54329;BME280;40710;51.120;13.136;2022-12-13T04:45:14;99020.75;;;-2.85;52.79
54329;BME280;40710;51.120;13.136;2022-12-13T04:47:40;99026.94;;;-3.29;53.68
54329;BME280;40710;51.120;13.136;2022-12-13T04:50:04;99032.91;;;-3.22;54.56
54329;BME280;40710;51.120;13.136;2022-12-13T04:52:29;99031.19;;;-3.25;53.51
54329;BME280;40710;51.120;13.136;2022-12-13T04:54:54;99028.56;;;-3.09;53.42
54329;BME280;40710;51.120;13.136;2022-12-13T04:57:19;99035.44;;;-3.17;52.63
54329;BME280;40710;51.120;13.136;2022-12-13T04:59:44;99032.88;;;-3.11;52.74
54329;BME280;40710;51.120;13.136;2022-12-13T05:02:10;99026.94;;;-3.32;53.10
54329;BME280;40710;51.120;13.136;2022-12-13T05:04:35;99036.41;;;-3.58;52.62
54329;BME280;40710;51.120;13.136;2022-12-13T05:07:00;99041.53;;;-3.74;53.54
54329;BME280;40710;51.120;13.136;2022-12-13T05:09:25;99042.34;;;-3.26;53.27
54329;BME280;40710;51.120;13.136;2022-12-13T05:11:50;99044.97;;;-3.52;53.49
54329;BME280;40710;51.120;13.136;2022-12-13T05:14:14;99032.97;;;-3.51;52.49
54329;BME280;40710;51.120;13.136;2022-12-13T05:16:39;99022.72;;;-3.62;52.39
54329;BME280;40710;51.120;13.136;2022-12-13T05:19:04;99026.16;;;-3.88;52.77
54329;BME280;40710;51.120;13.136;2022-12-13T05:21:28;99038.06;;;-4.54;55.30
54329;BME280;40710;51.120;13.136;2022-12-13T05:23:53;99024.31;;;-3.13;52.60
54329;BME280;40710;51.120;13.136;2022-12-13T05:26:17;99011.41;;;-3.01;51.25
54329;BME280;40710;51.120;13.136;2022-12-13T05:28:42;99020.97;;;-3.51;51.48
54329;BME280;40710;51.120;13.136;2022-12-13T05:31:09;99022.63;;;-3.27;51.14
54329;BME280;40710;51.120;13.136;2022-12-13T05:33:35;99021.00;;;-3.68;51.75
54329;BME280;40710;51.120;13.136;2022-12-13T05:35:59;99024.38;;;-3.36;51.49
54329;BME280;40710;51.120;13.136;2022-12-13T05:38:24;99032.97;;;-3.68;52.20
54329;BME280;40710;51.120;13.136;2022-12-13T05:40:48;99030.44;;;-4.22;53.13
54329;BME280;40710;51.120;13.136;2022-12-13T05:43:13;99025.28;;;-3.79;52.83
54329;BME280;40710;51.120;13.136;2022-12-13T05:45:38;99034.66;;;-4.50;53.83
54329;BME280;40710;51.120;13.136;2022-12-13T05:48:03;99034.69;;;-3.98;53.77
54329;BME280;40710;51.120;13.136;2022-12-13T05:50:27;99035.56;;;-3.57;52.11
54329;BME280;40710;51.120;13.136;2022-12-13T05:52:52;99039.00;;;-4.17;52.65
54329;BME280;40710;51.120;13.136;2022-12-13T05:55:16;99038.09;;;-4.38;52.83
54329;BME280;40710;51.120;13.136;2022-12-13T05:57:41;99051.00;;;-5.99;55.73
54329;BME280;40710;51.120;13.136;2022-12-13T06:00:08;99047.47;;;-4.55;55.32
54329;BME280;40710;51.120;13.136;2022-12-13T06:02:41;99042.13;;;-5.14;54.14
54329;BME280;40710;51.120;13.136;2022-12-13T06:05:08;99044.91;;;-4.55;55.08
54329;BME280;40710;51.120;13.136;2022-12-13T06:07:33;99054.00;;;-5.31;55.57
54329;BME280;40710;51.120;13.136;2022-12-13T06:09:58;99050.03;;;-4.52;53.94
54329;BME280;40710;51.120;13.136;2022-12-13T06:12:22;99038.81;;;-4.85;53.79
54329;BME280;40710;51.120;13.136;2022-12-13T06:14:47;99046.56;;;-4.71;53.83
54329;BME280;40710;51.120;13.136;2022-12-13T06:17:11;99041.56;;;-4.19;53.00
54329;BME280;40710;51.120;13.136;2022-12-13T06:19:36;99046.56;;;-4.69;53.67
54329;BME280;40710;51.120;13.136;2022-12-13T06:22:00;99045.78;;;-4.50;52.78
54329;BME280;40710;51.120;13.136;2022-12-13T06:24:25;99051.81;;;-4.19;51.86
54329;BME280;40710;51.120;13.136;2022-12-13T06:26:51;99056.63;;;-5.13;54.22
54329;BME280;40710;51.120;13.136;2022-12-13T06:29:17;99062.38;;;-5.51;54.39
54329;BME280;40710;51.120;13.136;2022-12-13T06:31:42;99055.09;;;-4.78;54.44
54329;BME280;40710;51.120;13.136;2022-12-13T06:34:07;99052.34;;;-5.20;55.07
54329;BME280;40710;51.120;13.136;2022-12-13T06:36:31;99054.88;;;-5.23;54.62
54329;BME280;40710;51.120;13.136;2022-12-13T06:39:01;99049.22;;;-4.35;53.05
54329;BME280;40710;51.120;13.136;2022-12-13T06:41:25;99049.22;;;-4.32;51.71
54329;BME280;40710;51.120;13.136;2022-12-13T06:43:50;99064.25;;;-5.25;55.28
54329;BME280;40710;51.120;13.136;2022-12-13T06:46:14;99061.81;;;-5.06;53.77
54329;BME280;40710;51.120;13.136;2022-12-13T06:48:39;99065.44;;;-4.41;53.14
54329;BME280;40710;51.120;13.136;2022-12-13T06:51:04;99057.78;;;-4.27;52.94
54329;BME280;40710;51.120;13.136;2022-12-13T06:53:30;99062.06;;;-4.15;52.90
54329;BME280;40710;51.120;13.136;2022-12-13T06:55:55;99064.63;;;-4.32;52.04
54329;BME280;40710;51.120;13.136;2022-12-13T06:58:20;99059.47;;;-4.37;52.20
54329;BME280;40710;51.120;13.136;2022-12-13T07:00:44;99068.03;;;-4.40;52.57
54329;BME280;40710;51.120;13.136;2022-12-13T07:03:10;99058.63;;;-4.18;52.02
54329;BME280;40710;51.120;13.136;2022-12-13T07:05:36;99057.81;;;-4.06;51.93
54329;BME280;40710;51.120;13.136;2022-12-13T07:08:01;99076.47;;;-4.68;52.93
54329;BME280;40710;51.120;13.136;2022-12-13T07:10:26;99073.22;;;-3.83;53.03
54329;BME280;40710;51.120;13.136;2022-12-13T07:12:50;99073.19;;;-4.15;52.29
54329;BME280;40710;51.120;13.136;2022-12-13T07:15:15;99079.16;;;-4.30;53.09
54329;BME280;40710;51.120;13.136;2022-12-13T07:17:39;99076.50;;;-4.58;52.98
54329;BME280;40710;51.120;13.136;2022-12-13T07:20:06;99088.38;;;-4.84;52.94
54329;BME280;40710;51.120;13.136;2022-12-13T07:22:31;99086.66;;;-4.88;54.08
54329;BME280;40710;51.120;13.136;2022-12-13T07:24:56;99074.81;;;-4.60;52.19
54329;BME280;40710;51.120;13.136;2022-12-13T07:27:20;99088.41;;;-4.73;54.01
54329;BME280;40710;51.120;13.136;2022-12-13T07:29:45;99090.78;;;-5.18;53.83
54329;BME280;40710;51.120;13.136;2022-12-13T07:32:10;99084.78;;;-5.16;54.09
54329;BME280;40710;51.120;13.136;2022-12-13T07:34:34;99079.97;;;-4.46;52.85
54329;BME280;40710;51.120;13.136;2022-12-13T07:36:59;99065.47;;;-4.33;51.94
54329;BME280;40710;51.120;13.136;2022-12-13T07:39:24;99076.44;;;-4.84;51.51
54329;BME280;40710;51.120;13.136;2022-12-13T07:41:54;99073.03;;;-4.73;51.70
54329;BME280;40710;51.120;13.136;2022-12-13T07:44:19;99075.53;;;-4.86;51.77
54329;BME280;40710;51.120;13.136;2022-12-13T07:46:44;99074.88;;;-4.26;50.74
54329;BME280;40710;51.120;13.136;2022-12-13T07:49:10;99078.31;;;-4.18;50.35
54329;BME280;40710;51.120;13.136;2022-12-13T07:51:35;99083.94;;;-5.22;51.22
54329;BME280;40710;51.120;13.136;2022-12-13T07:54:00;99085.19;;;-4.05;50.07
54329;BME280;40710;51.120;13.136;2022-12-13T07:56:24;99087.75;;;-4.08;50.31
54329;BME280;40710;51.120;13.136;2022-12-13T07:58:49;99093.44;;;-5.03;50.86
54329;BME280;40710;51.120;13.136;2022-12-13T08:01:13;99086.00;;;-4.29;50.30
54329;BME280;40710;51.120;13.136;2022-12-13T08:03:38;99080.81;;;-4.53;50.56
54329;BME280;40710;51.120;13.136;2022-12-13T08:06:06;99081.78;;;-3.79;50.77
54329;BME280;40710;51.120;13.136;2022-12-13T08:08:32;99084.31;;;-4.07;50.71
54329;BME280;40710;51.120;13.136;2022-12-13T08:11:04;99081.72;;;-4.25;49.53
54329;BME280;40710;51.120;13.136;2022-12-13T08:13:29;99092.75;;;-4.62;52.32
54329;BME280;40710;51.120;13.136;2022-12-13T08:16:01;99073.91;;;-2.80;49.09
54329;BME280;40710;51.120;13.136;2022-12-13T08:18:28;99073.81;;;-2.57;48.99
54329;BME280;40710;51.120;13.136;2022-12-13T08:20:59;99064.00;;;-1.98;46.86
54329;BME280;40710;51.120;13.136;2022-12-13T08:23:24;99067.88;;;-2.81;48.63
54329;BME280;40710;51.120;13.136;2022-12-13T08:25:51;99057.06;;;-1.87;47.23
54329;BME280;40710;51.120;13.136;2022-12-13T08:28:16;99059.19;;;-2.51;46.97
54329;BME280;40710;51.120;13.136;2022-12-13T08:30:40;99058.47;;;-1.52;46.85
54329;BME280;40710;51.120;13.136;2022-12-13T08:33:05;99047.44;;;-0.84;45.23
54329;BME280;40710;51.120;13.136;2022-12-13T08:35:30;99050.88;;;-0.17;43.85
54329;BME280;40710;51.120;13.136;2022-12-13T08:37:55;99062.16;;;-0.89;45.00
54329;BME280;40710;51.120;13.136;2022-12-13T08:40:19;99064.75;;;-0.94;44.85
54329;BME280;40710;51.120;13.136;2022-12-13T08:42:44;99062.75;;;-0.69;45.01
54329;BME280;40710;51.120;13.136;2022-12-13T08:45:09;99056.53;;;0.07;43.43
54329;BME280;40710;51.120;13.136;2022-12-13T08:47:34;99063.88;;;0.33;42.77
54329;BME280;40710;51.120;13.136;2022-12-13T08:49:58;99057.72;;;-0.16;42.91
54329;BME280;40710;51.120;13.136;2022-12-13T08:52:23;99055.09;;;-0.11;43.23
54329;BME280;40710;51.120;13.136;2022-12-13T08:54:48;99044.84;;;0.85;42.00
54329;BME280;40710;51.120;13.136;2022-12-13T08:57:13;99047.97;;;1.03;41.59
54329;BME280;40710;51.120;13.136;2022-12-13T08:59:37;99054.06;;;0.52;42.09
54329;BME280;40710;51.120;13.136;2022-12-13T09:02:02;99054.34;;;0.85;42.08
54329;BME280;40710;51.120;13.136;2022-12-13T09:04:26;99035.72;;;1.53;40.91
54329;BME280;40710;51.120;13.136;2022-12-13T09:06:51;99032.06;;;1.63;40.67
54329;BME280;40710;51.120;13.136;2022-12-13T09:09:16;99040.56;;;2.06;40.93
54329;BME280;40710;51.120;13.136;2022-12-13T09:11:40;99047.06;;;1.47;41.19
54329;BME280;40710;51.120;13.136;2022-12-13T09:14:06;99041.44;;;1.67;40.05
54329;BME280;40710;51.120;13.136;2022-12-13T09:16:31;99040.22;;;2.21;40.16
54329;BME280;40710;51.120;13.136;2022-12-13T09:18:55;99027.66;;;2.40;38.64
54329;BME280;40710;51.120;13.136;2022-12-13T09:21:20;99032.97;;;2.69;38.39
54329;BME280;40710;51.120;13.136;2022-12-13T09:23:45;99023.38;;;3.03;38.04
54329;BME280;40710;51.120;13.136;2022-12-13T09:26:12;99035.97;;;2.17;39.31
54329;BME280;40710;51.120;13.136;2022-12-13T09:28:37;99012.13;;;3.03;37.70
54329;BME280;40710;51.120;13.136;2022-12-13T09:31:10;99015.53;;;3.65;37.39
54329;BME280;40710;51.120;13.136;2022-12-13T09:33:35;99031.56;;;1.85;40.83
54329;BME280;40710;51.120;13.136;2022-12-13T09:36:03;99028.28;;;1.77;40.20
54329;BME280;40710;51.120;13.136;2022-12-13T09:38:29;99008.22;;;3.49;38.07
54329;BME280;40710;51.120;13.136;2022-12-13T09:40:55;99010.06;;;3.74;39.16
54329;BME280;40710;51.120;13.136;2022-12-13T09:43:27;99003.06;;;3.76;38.42
54329;BME280;40710;51.120;13.136;2022-12-13T09:45:53;98998.63;;;4.58;36.44
54329;BME280;40710;51.120;13.136;2022-12-13T09:48:19;99004.84;;;4.54;37.05
54329;BME280;40710;51.120;13.136;2022-12-13T09:50:45;98987.66;;;4.99;35.74
54329;BME280;40710;51.120;13.136;2022-12-13T09:53:15;98997.53;;;4.65;36.14
54329;BME280;40710;51.120;13.136;2022-12-13T09:55:48;98989.63;;;4.92;36.33
54329;BME280;40710;51.120;13.136;2022-12-13T09:58:22;98994.44;;;4.54;36.51
54329;BME280;40710;51.120;13.136;2022-12-13T10:00:51;98986.13;;;5.17;35.75
54329;BME280;40710;51.120;13.136;2022-12-13T10:03:19;98984.97;;;4.77;36.48
54329;BME280;40710;51.120;13.136;2022-12-13T10:08:24;98971.63;;;5.33;35.23
54329;BME280;40710;51.120;13.136;2022-12-13T10:10:51;98967.06;;;5.84;34.66
54329;BME280;40710;51.120;13.136;2022-12-13T10:13:28;98976.31;;;5.69;35.44
54329;BME280;40710;51.120;13.136;2022-12-13T10:16:05;98971.13;;;6.34;34.72
54329;BME280;40710;51.120;13.136;2022-12-13T10:18:40;98984.59;;;5.80;34.54
54329;BME280;40710;51.120;13.136;2022-12-13T10:21:22;98980.00;;;5.41;35.41
54329;BME280;40710;51.120;13.136;2022-12-13T10:23:51;98982.53;;;5.21;36.32
54329;BME280;40710;51.120;13.136;2022-12-13T10:26:15;98980.09;;;6.49;34.83
54329;BME280;40710;51.120;13.136;2022-12-13T10:28:41;98988.47;;;5.46;36.04
54329;BME280;40710;51.120;13.136;2022-12-13T10:31:06;98983.53;;;5.84;36.18
54329;BME280;40710;51.120;13.136;2022-12-13T10:33:34;98966.75;;;6.34;34.25
54329;BME280;40710;51.120;13.136;2022-12-13T10:38:29;98962.16;;;6.80;34.53
54329;BME280;40710;51.120;13.136;2022-12-13T10:40:54;98957.03;;;7.91;33.22
54329;BME280;40710;51.120;13.136;2022-12-13T10:43:21;98963.41;;;7.86;32.94
54329;BME280;40710;51.120;13.136;2022-12-13T10:48:41;98965.94;;;7.13;34.17
54329;BME280;40710;51.120;13.136;2022-12-13T10:51:16;98960.91;;;8.02;34.29
54329;BME280;40710;51.120;13.136;2022-12-13T10:53:47;98958.16;;;7.11;34.57
54329;BME280;40710;51.120;13.136;2022-12-13T10:56:13;98951.81;;;8.26;33.55
54329;BME280;40710;51.120;13.136;2022-12-13T10:58:46;98935.41;;;8.40;32.87
54329;BME280;40710;51.120;13.136;2022-12-13T11:01:21;98935.19;;;8.45;32.85
54329;BME280;40710;51.120;13.136;2022-12-13T11:04:02;98940.03;;;8.00;33.58
54329;BME280;40710;51.120;13.136;2022-12-13T11:06:39;98926.88;;;8.87;32.76
54329;BME280;40710;51.120;13.136;2022-12-13T11:09:34;98933.28;;;9.47;32.15
54329;BME280;40710;51.120;13.136;2022-12-13T11:12:02;98933.16;;;9.17;32.69
54329;BME280;40710;51.120;13.136;2022-12-13T11:14:33;98924.19;;;8.89;32.18
54329;BME280;40710;51.120;13.136;2022-12-13T11:17:08;98917.34;;;9.82;31.84
54329;BME280;40710;51.120;13.136;2022-12-13T11:19:45;98923.56;;;9.33;32.41
54329;BME280;40710;51.120;13.136;2022-12-13T11:22:27;98919.78;;;8.89;32.76
54329;BME280;40710;51.120;13.136;2022-12-13T11:25:07;98917.19;;;9.37;32.43
54329;BME280;40710;51.120;13.136;2022-12-13T11:30:11;98907.34;;;9.73;32.33
54329;BME280;40710;51.120;13.136;2022-12-13T11:36:01;98905.34;;;9.62;32.01
54329;BME280;40710;51.120;13.136;2022-12-13T11:38:50;98915.91;;;9.44;33.12
54329;BME280;40710;51.120;13.136;2022-12-13T11:41:21;98912.13;;;9.34;32.77
54329;BME280;40710;51.120;13.136;2022-12-13T11:43:54;98916.84;;;9.75;32.60
54329;BME280;40710;51.120;13.136;2022-12-13T11:46:41;98919.13;;;9.50;32.62
54329;BME280;40710;51.120;13.136;2022-12-13T11:49:14;98912.09;;;9.82;32.72
54329;BME280;40710;51.120;13.136;2022-12-13T11:51:49;98909.81;;;9.60;32.99
54329;BME280;40710;51.120;13.136;2022-12-13T11:54:43;98915.00;;;9.61;32.79
54329;BME280;40710;51.120;13.136;2022-12-13T11:57:30;98911.09;;;10.29;31.56
54329;BME280;40710;51.120;13.136;2022-12-13T12:00:04;98915.84;;;9.46;31.59
54329;BME280;40710;51.120;13.136;2022-12-13T12:02:32;98916.59;;;9.48;33.50
54329;BME280;40710;51.120;13.136;2022-12-13T12:05:03;98918.66;;;9.89;32.80
54329;BME280;40710;51.120;13.136;2022-12-13T12:07:42;98916.75;;;9.13;32.70
54329;BME280;40710;51.120;13.136;2022-12-13T12:12:41;98924.66;;;8.46;33.19
54329;BME280;40710;51.120;13.136;2022-12-13T12:15:28;98920.56;;;9.39;32.79
54329;BME280;40710;51.120;13.136;2022-12-13T12:17:54;98921.25;;;9.75;32.42
54329;BME280;40710;51.120;13.136;2022-12-13T12:20:30;98920.88;;;9.81;32.91
54329;BME280;40710;51.120;13.136;2022-12-13T12:25:43;98923.19;;;9.23;33.24
54329;BME280;40710;51.120;13.136;2022-12-13T12:30:54;98919.63;;;10.02;32.75
54329;BME280;40710;51.120;13.136;2022-12-13T12:34:01;98914.16;;;10.21;31.89
54329;BME280;40710;51.120;13.136;2022-12-13T12:39:17;98920.53;;;8.92;33.34
54329;BME280;40710;51.120;13.136;2022-12-13T12:44:42;98907.22;;;9.12;32.72
54329;BME280;40710;51.120;13.136;2022-12-13T12:50:07;98907.44;;;8.92;33.26
54329;BME280;40710;51.120;13.136;2022-12-13T12:52:48;98903.81;;;9.58;33.02
54329;BME280;40710;51.120;13.136;2022-12-13T12:55:35;98902.13;;;9.57;32.51
54329;BME280;40710;51.120;13.136;2022-12-13T13:00:50;98921.66;;;8.19;36.16
54329;BME280;40710;51.120;13.136;2022-12-13T13:03:23;98912.00;;;8.55;35.55
54329;BME280;40710;51.120;13.136;2022-12-13T13:06:08;98919.47;;;7.75;35.35
54329;BME280;40710;51.120;13.136;2022-12-13T13:08:53;98915.66;;;8.17;36.63
54329;BME280;40710;51.120;13.136;2022-12-13T13:11:25;98894.47;;;9.84;32.98
54329;BME280;40710;51.120;13.136;2022-12-13T13:16:43;98898.25;;;9.16;34.17
54329;BME280;40710;51.120;13.136;2022-12-13T13:26:36;98893.84;;;9.01;34.85
54329;BME280;40710;51.120;13.136;2022-12-13T13:34:40;98887.59;;;9.19;32.80
54329;BME280;40710;51.120;13.136;2022-12-13T13:39:58;98892.38;;;9.59;32.89
54329;BME280;40710;51.120;13.136;2022-12-13T13:42:31;98893.50;;;9.39;33.07
54329;BME280;40710;51.120;13.136;2022-12-13T13:47:41;98892.09;;;9.79;32.24
54329;BME280;40710;51.120;13.136;2022-12-13T13:58:34;98913.66;;;9.06;33.62
54329;BME280;40710;51.120;13.136;2022-12-13T14:01:33;98925.44;;;8.82;34.19
54329;BME280;40710;51.120;13.136;2022-12-13T14:06:59;98928.88;;;8.66;34.98
54329;BME280;40710;51.120;13.136;2022-12-13T14:10:06;98923.41;;;8.87;34.46
54329;BME280;40710;51.120;13.136;2022-12-13T14:23:59;98923.56;;;7.98;35.45
54329;BME280;40710;51.120;13.136;2022-12-13T14:29:21;98934.66;;;7.11;36.95
54329;BME280;40710;51.120;13.136;2022-12-13T14:31:48;98935.59;;;7.29;36.75
54329;BME280;40710;51.120;13.136;2022-12-13T14:34:23;98930.91;;;7.17;36.69
54329;BME280;40710;51.120;13.136;2022-12-13T14:39:19;98953.34;;;6.01;38.51
54329;BME280;40710;51.120;13.136;2022-12-13T14:41:46;98952.47;;;5.78;39.03
54329;BME280;40710;51.120;13.136;2022-12-13T14:44:25;98948.59;;;6.11;39.12
54329;BME280;40710;51.120;13.136;2022-12-13T14:49:21;98965.56;;;4.37;41.75
54329;BME280;40710;51.120;13.136;2022-12-13T14:51:49;98961.81;;;4.69;41.17